Time;durP1;ratioP1;P1;durP2;ratioP2;P2;SDS_P1;SDS_P2;PMS_P1;PMS_P2;Temp;Humidity;BMP_temperature;BMP_pressure;BME280_temperature;BME280_humidity;BME280_pressure;Samples;Min_cycle;Max_cycle;Signal;HPM_P1;HPM_P2
2022/06/26 00:01:16;;;;;;;7.68;6.82;;;;;;;17.67;100.00;156961.09;5045857;28;20044;-76
2022/06/26 00:03:42;;;;;;;11.02;7.25;;;;;;;17.68;100.00;156962.38;5061800;28;20029;-76
2022/06/26 00:06:09;;;;;;;7.88;6.68;;;;;;;17.67;100.00;156959.81;5049975;28;20039;-77
2022/06/26 00:08:35;;;;;;;8.88;6.90;;;;;;;17.63;100.00;156949.47;5013049;28;20598;-77
2022/06/26 00:11:03;;;;;;;8.82;7.55;;;;;;;17.55;100.00;156928.88;5013330;28;20044;-77
2022/06/26 00:13:29;;;;;;;11.05;7.63;;;;;;;17.52;100.00;156923.72;5015057;28;20793;-76
2022/06/26 00:15:56;;;;;;;8.82;6.60;;;;;;;17.44;100.00;156903.13;5030003;28;20042;-77
2022/06/26 00:18:22;;;;;;;8.38;7.35;;;;;;;17.41;100.00;156895.38;5016833;28;20132;-77
2022/06/26 00:20:48;;;;;;;8.45;7.40;;;;;;;17.39;100.00;156888.97;5031618;28;20045;-76
2022/06/26 00:23:14;;;;;;;8.18;7.05;;;;;;;17.37;100.00;156885.09;5012572;28;20033;-76
2022/06/26 00:25:40;;;;;;;9.13;8.13;;;;;;;17.38;100.00;156887.63;5028964;28;20041;-76
2022/06/26 00:28:09;;;;;;;11.85;7.93;;;;;;;17.42;100.00;156896.66;5016320;28;20035;-76
2022/06/26 00:30:35;;;;;;;9.45;7.45;;;;;;;17.42;100.00;156896.66;5010133;28;20037;-77
2022/06/26 00:33:04;;;;;;;8.60;7.70;;;;;;;17.44;100.00;156901.81;5011051;28;20674;-76
2022/06/26 00:35:30;;;;;;;9.65;8.07;;;;;;;17.44;100.00;156903.13;5013709;28;20045;-76
2022/06/26 00:38:00;;;;;;;11.27;7.65;;;;;;;17.45;100.00;156904.41;5033669;28;20034;-75
2022/06/26 00:40:26;;;;;;;10.27;8.35;;;;;;;17.41;100.00;156895.38;5015043;28;20129;-76
2022/06/26 00:42:52;;;;;;;11.90;7.57;;;;;;;17.40;100.00;156892.78;5026961;28;20044;-76
2022/06/26 00:45:18;;;;;;;7.93;7.22;;;;;;;17.31;100.00;156869.66;5013518;28;20037;-75
2022/06/26 00:47:50;;;;;;;8.73;7.22;;;;;;;17.31;100.00;156869.66;5049165;28;20037;-76
2022/06/26 00:50:17;;;;;;;9.50;8.05;;;;;;;17.25;100.00;156854.16;5016426;28;20095;-77
2022/06/26 00:52:45;;;;;;;8.60;7.70;;;;;;;17.24;100.00;156851.59;5032112;28;20047;-75
2022/06/26 00:55:11;;;;;;;8.18;7.45;;;;;;;17.25;100.00;156854.16;5024710;28;20060;-76
2022/06/26 00:57:38;;;;;;;9.38;8.48;;;;;;;17.26;100.00;156858.03;5020637;28;20747;-76
2022/06/26 01:00:06;;;;;;;9.07;8.27;;;;;;;17.29;100.00;156865.75;5018677;28;20040;-76
2022/06/26 01:02:32;;;;;;;10.35;8.45;;;;;;;17.37;100.00;156885.09;5045418;28;20060;-77
2022/06/26 01:04:58;;;;;;;12.43;9.15;;;;;;;17.49;100.00;156915.97;5038931;28;20091;-77
2022/06/26 01:07:25;;;;;;;9.07;8.13;;;;;;;17.67;100.00;156961.09;5032514;28;20979;-78
2022/06/26 01:09:51;;;;;;;9.00;7.93;;;;;;;17.74;100.00;156977.81;5050687;28;20067;-75
2022/06/26 01:12:16;;;;;;;9.63;8.02;;;;;;;17.81;100.00;156994.59;5056482;28;20041;-76
2022/06/26 01:14:42;;;;;;;8.77;7.97;;;;;;;17.94;100.00;157028.13;5031700;28;20036;-77
2022/06/26 01:17:09;;;;;;;8.15;7.35;;;;;;;18.05;100.00;157055.22;5015943;28;20079;-77
2022/06/26 01:19:36;;;;;;;9.75;8.18;;;;;;;18.21;100.00;157096.41;5046730;28;20052;-76
2022/06/26 01:22:02;;;;;;;9.63;7.50;;;;;;;18.27;100.00;157110.59;5023285;28;20029;-77
2022/06/26 01:24:27;;;;;;;9.98;7.63;;;;;;;18.28;100.00;157113.19;5018633;28;20037;-77
2022/06/26 01:26:53;;;;;;;8.75;7.10;;;;;;;18.31;100.00;157119.63;5047870;28;20033;-79
2022/06/26 01:29:19;;;;;;;8.10;7.30;;;;;;;18.26;100.00;157108.03;5015644;28;20067;-79
2022/06/26 01:31:44;;;;;;;7.95;7.15;;;;;;;18.15;100.00;157080.97;5048355;28;20140;-76
2022/06/26 01:34:12;;;;;;;14.63;7.50;;;;;;;18.03;100.00;157050.06;5012041;28;20033;-77
2022/06/26 01:36:38;;;;;;;7.85;6.68;;;;;;;17.95;100.00;157030.75;5050163;28;20043;-76
2022/06/26 01:39:05;;;;;;;7.53;6.45;;;;;;;17.86;100.00;157007.53;5053032;28;20087;-76
2022/06/26 01:41:31;;;;;;;8.80;7.50;;;;;;;17.79;100.00;156989.44;5030191;28;20094;-78
2022/06/26 01:43:57;;;;;;;8.50;7.13;;;;;;;17.70;100.00;156967.53;5044463;28;20025;-77
2022/06/26 01:46:25;;;;;;;9.93;7.45;;;;;;;17.63;100.00;156950.78;5032680;28;20037;-78
2022/06/26 01:48:51;;;;;;;10.00;7.95;;;;;;;17.60;100.00;156943.03;5014942;28;20836;-77
2022/06/26 01:51:17;;;;;;;8.35;7.47;;;;;;;17.52;100.00;156923.72;5030403;28;20033;-78
2022/06/26 01:53:44;;;;;;;11.05;8.30;;;;;;;17.52;100.00;156923.72;5035673;28;20064;-76
2022/06/26 01:56:10;;;;;;;9.48;8.50;;;;;;;17.48;100.00;156912.16;5028366;28;20070;-78
2022/06/26 01:58:39;;;;;;;10.82;8.63;;;;;;;17.44;100.00;156903.13;5030821;28;20295;-78
2022/06/26 02:01:07;;;;;;;10.95;9.43;;;;;;;17.44;100.00;156903.13;5025768;28;20060;-77
2022/06/26 02:03:33;;;;;;;11.65;8.20;;;;;;;17.45;100.00;156904.41;5046393;28;20037;-77
2022/06/26 02:05:58;;;;;;;11.25;8.52;;;;;;;17.42;100.00;156897.97;5028143;28;20095;-76
2022/06/26 02:08:24;;;;;;;12.02;9.52;;;;;;;17.39;100.00;156888.97;5026195;28;20041;-78
2022/06/26 02:13:36;;;;;;;13.10;8.90;;;;;;;17.38;100.00;156886.38;5030903;28;20095;-76
2022/06/26 02:16:17;;;;;;;11.52;9.45;;;;;;;17.37;100.00;156885.09;5030606;28;20040;-77
2022/06/26 02:18:46;;;;;;;12.70;9.50;;;;;;;17.36;100.00;156881.22;5030906;28;20564;-76
2022/06/26 02:21:14;;;;;;;9.88;8.90;;;;;;;17.35;100.00;156878.63;5015249;28;20053;-76
2022/06/26 02:23:41;;;;;;;10.38;9.07;;;;;;;17.34;100.00;156877.34;5043970;28;20480;-76
2022/06/26 02:26:08;;;;;;;12.40;9.95;;;;;;;17.29;100.00;156865.75;5021593;28;20037;-76
2022/06/26 02:28:35;;;;;;;10.15;9.15;;;;;;;17.25;100.00;156855.47;5046763;28;20389;-78
2022/06/26 02:31:00;;;;;;;10.90;9.70;;;;;;;17.25;100.00;156855.47;5046527;28;20503;-75
2022/06/26 02:33:29;;;;;;;10.30;9.05;;;;;;;17.18;100.00;156837.44;5046764;28;20028;-78
2022/06/26 02:35:55;;;;;;;10.32;9.23;;;;;;;17.18;100.00;156836.09;5045732;28;20036;-77
2022/06/26 02:38:23;;;;;;;9.88;8.88;;;;;;;17.14;100.00;156827.13;5012688;28;20096;-78
2022/06/26 02:40:49;;;;;;;10.77;9.68;;;;;;;17.09;100.00;156815.50;5049701;28;20037;-75
2022/06/26 02:43:18;;;;;;;12.20;10.23;;;;;;;17.07;100.00;156809.09;5039164;28;20364;-77
2022/06/26 02:45:45;;;;;;;11.30;10.05;;;;;;;17.04;100.00;156802.63;5031355;28;20049;-76
2022/06/26 02:48:11;;;;;;;11.25;10.00;;;;;;;17.03;100.00;156798.81;5013883;28;20037;-76
2022/06/26 02:50:39;;;;;;;11.85;10.65;;;;;;;17.00;100.00;156792.31;5045211;28;20041;-77
2022/06/26 02:53:05;;;;;;;13.50;10.75;;;;;;;16.99;100.00;156789.78;5029628;28;20082;-77
2022/06/26 02:55:31;;;;;;;12.10;10.88;;;;;;;17.01;100.00;156793.59;5029543;28;20041;-77
2022/06/26 02:57:57;;;;;;;11.70;10.57;;;;;;;16.99;100.00;156788.47;5014801;28;20029;-77
2022/06/26 03:00:24;;;;;;;11.60;10.45;;;;;;;17.00;100.00;156791.06;5033980;28;20052;-76
2022/06/26 03:02:50;;;;;;;13.85;11.43;;;;;;;17.00;100.00;156792.31;5016660;28;20041;-76
2022/06/26 03:05:16;;;;;;;12.75;11.48;;;;;;;17.07;100.00;156809.09;5031954;28;20639;-76
2022/06/26 03:07:42;;;;;;;13.40;11.82;;;;;;;17.07;100.00;156809.09;5040582;28;20044;-77
2022/06/26 03:10:09;;;;;;;14.90;12.45;;;;;;;17.10;100.00;156816.78;5010557;28;20043;-78
2022/06/26 03:12:42;;;;;;;13.50;11.45;;;;;;;17.15;100.00;156829.69;5029525;28;20123;-77
2022/06/26 03:15:07;;;;;;;17.70;12.60;;;;;;;17.13;100.00;156824.53;5014563;28;20535;-77
2022/06/26 03:17:33;;;;;;;12.68;11.45;;;;;;;17.15;100.00;156829.69;5043595;28;21442;-77
2022/06/26 03:20:03;;;;;;;13.77;11.75;;;;;;;17.17;100.00;156834.84;5011947;28;20086;-76
2022/06/26 03:22:28;;;;;;;13.85;12.25;;;;;;;17.18;100.00;156837.44;5058986;28;20091;-76
2022/06/26 03:24:54;;;;;;;12.75;11.52;;;;;;;17.24;100.00;156852.88;5033583;28;20033;-77
2022/06/26 03:27:25;;;;;;;18.08;13.23;;;;;;;17.21;100.00;156845.13;5029505;28;20061;-76
2022/06/26 03:29:51;;;;;;;14.63;12.60;;;;;;;17.21;100.00;156843.84;5025984;28;20560;-76
2022/06/26 03:32:17;;;;;;;14.77;11.57;;;;;;;17.20;100.00;156842.56;5030005;28;20120;-77
2022/06/26 03:34:56;;;;;;;13.40;11.43;;;;;;;17.24;100.00;156852.88;5031405;28;20102;-77
2022/06/26 03:37:26;;;;;;;15.05;12.35;;;;;;;17.36;100.00;156882.50;5025585;28;20559;-76
2022/06/26 03:39:52;;;;;;;14.48;13.07;;;;;;;17.58;100.00;156937.91;5030909;28;20211;-76
2022/06/26 03:42:18;;;;;;;16.35;13.40;;;;;;;17.63;100.00;156950.78;5031367;28;20616;-77
2022/06/26 03:44:44;;;;;;;15.15;13.60;;;;;;;17.57;100.00;156935.31;5023564;28;20075;-77
2022/06/26 03:47:10;;;;;;;15.45;13.85;;;;;;;17.65;100.00;156954.63;5008137;28;20146;-77
2022/06/26 03:49:35;;;;;;;14.85;13.32;;;;;;;17.71;100.00;156971.38;5039588;28;20065;-76
2022/06/26 03:52:03;;;;;;;15.05;13.30;;;;;;;17.71;100.00;156971.38;5010333;28;20040;-76
2022/06/26 03:54:30;;;;;;;15.90;14.30;;;;;;;17.85;100.00;157006.22;5041884;28;20139;-76
2022/06/26 03:56:57;;;;;;;15.90;14.30;;;;;;;17.91;100.00;157020.38;5016620;28;20075;-77
2022/06/26 03:59:27;;;;;;;17.08;13.60;;;;;;;17.96;100.00;157032.00;5027575;28;20051;-77
2022/06/26 04:01:52;;;;;;;15.20;13.63;;;;;;;17.85;100.00;157004.94;5044746;28;20119;-76
2022/06/26 04:04:18;;;;;;;15.35;13.90;;;;;;;17.86;100.00;157007.53;5018111;28;20423;-76
2022/06/26 04:06:48;;;;;;;15.45;13.80;;;;;;;17.91;100.00;157020.38;5033023;28;20068;-77
2022/06/26 04:09:23;;;;;;;15.40;13.90;;;;;;;18.01;100.00;157044.91;5035502;28;20117;-76
2022/06/26 04:11:49;;;;;;;15.98;13.68;;;;;;;17.96;100.00;157032.00;5013700;28;20071;-77
2022/06/26 04:14:14;;;;;;;15.85;14.00;;;;;;;18.07;100.00;157060.38;5031695;28;20029;-76
2022/06/26 04:16:40;;;;;;;15.52;13.98;;;;;;;18.08;100.00;157064.25;5033159;28;20506;-75
2022/06/26 04:19:07;;;;;;;14.82;13.20;;;;;;;18.12;100.00;157073.25;5021139;28;20497;-77
2022/06/26 04:21:35;;;;;;;14.40;13.00;;;;;;;18.21;100.00;157096.41;5036334;28;20060;-75
2022/06/26 04:24:06;;;;;;;17.33;13.95;;;;;;;18.19;100.00;157090.00;5046780;28;20387;-76
2022/06/26 04:26:31;;;;;;;13.95;12.55;;;;;;;18.27;100.00;157110.59;5045523;28;20131;-78
2022/06/26 04:28:57;;;;;;;16.95;12.68;;;;;;;18.26;100.00;157109.31;5034913;28;20037;-76
2022/06/26 04:31:24;;;;;;;14.15;12.75;;;;;;;18.34;100.00;157128.66;5045519;28;20102;-78
2022/06/26 04:33:51;;;;;;;13.88;12.45;;;;;;;18.36;100.00;157132.53;5033750;28;20492;-77
2022/06/26 04:36:17;;;;;;;14.02;12.60;;;;;;;18.37;100.00;157135.13;5013618;28;20034;-77
2022/06/26 04:38:43;;;;;;;13.40;12.07;;;;;;;18.41;100.00;157146.69;5051324;28;20042;-77
2022/06/26 04:43:53;;;;;;;12.93;11.57;;;;;;;18.61;100.00;157197.00;5050966;28;20029;-76
2022/06/26 04:46:19;;;;;;;14.57;13.00;;;;;;;18.74;100.00;157229.22;5018672;28;20052;-75
2022/06/26 04:48:45;;;;;;;13.07;11.60;;;;;;;18.87;100.00;157261.47;5033126;28;20041;-76
2022/06/26 04:51:12;;;;;;;12.82;11.55;;;;;;;18.85;100.00;157256.31;5024314;28;20037;-75
2022/06/26 04:53:39;;;;;;;12.13;10.93;;;;;;;18.81;100.00;157246.00;5031698;28;20026;-76
2022/06/26 04:56:05;;;;;;;16.83;11.15;;;;;;;18.93;100.00;157276.97;5036080;28;20044;-76
2022/06/26 04:58:41;;;;;;;12.45;11.25;;;;;;;19.10;100.00;157318.22;5064910;28;20468;-77
2022/06/26 05:01:07;;;;;;;14.77;11.25;;;;;;;19.03;100.00;157301.47;5023009;28;20060;-77
2022/06/26 05:03:52;;;;;;;13.80;11.63;;;;;;;19.04;100.00;157305.34;5043723;28;20044;-77
2022/06/26 05:06:29;;;;;;;12.40;11.13;;;;;;;19.23;100.00;157353.06;5050894;28;20118;-75
2022/06/26 05:09:11;;;;;;;13.27;11.68;;;;;;;19.34;100.00;157380.09;5048731;28;20045;-76
2022/06/26 05:11:37;;;;;;;14.25;11.35;;;;;;;19.41;100.00;157398.16;5029810;28;20059;-77
2022/06/26 05:14:05;;;;;;;12.27;10.27;;;;;;;19.49;100.00;157417.50;5034072;28;20534;-76
2022/06/26 05:16:51;;;;;;;12.75;11.35;;;;;;;19.42;100.00;157400.75;5038302;28;20271;-76
2022/06/26 05:19:20;;;;;;;15.70;11.15;;;;;;;19.49;100.00;157417.50;5038358;28;20047;-76
2022/06/26 05:21:45;;;;;;;12.82;10.98;;;;;;;19.57;100.00;157436.84;5015097;28;20044;-76
2022/06/26 05:24:11;;;;;;;12.10;10.05;;;;;;;19.64;100.00;157454.91;5013690;28;20029;-77
2022/06/26 05:26:43;;;;;;;13.32;9.80;;;;;;;19.79;100.00;157493.66;5025024;28;20043;-76
2022/06/26 05:29:08;;;;;;;10.15;9.07;;;;;;;19.84;100.00;157506.56;5015821;28;20033;-77
2022/06/26 05:31:34;;;;;;;12.32;9.77;;;;;;;19.92;100.00;157525.91;5013585;28;20036;-77
2022/06/26 05:34:00;;;;;;;10.50;9.18;;;;;;;19.95;100.00;157533.66;5016587;28;20033;-77
2022/06/26 05:36:26;;;;;;;11.15;8.73;;;;;;;20.10;100.00;157571.09;5020750;28;20124;-77
2022/06/26 05:38:51;;;;;;;12.18;9.43;;;;;;;20.12;100.00;157574.97;5050671;28;20040;-76
2022/06/26 05:41:17;;;;;;;14.00;9.25;;;;;;;20.26;100.00;157611.06;5017942;28;20492;-77
2022/06/26 05:43:44;;;;;;;11.63;8.50;;;;;;;20.42;100.00;157651.09;5033439;28;20033;-75
2022/06/26 05:46:12;;;;;;;11.85;9.30;;;;;;;20.67;100.00;157713.06;5031827;28;20120;-76
2022/06/26 05:48:57;;;;;;;9.77;8.77;;;;;;;20.80;100.00;157747.91;5051989;28;20037;-77
2022/06/26 05:51:28;;;;;;;10.70;8.30;;;;;;;21.04;100.00;157805.97;5045238;28;20045;-75
2022/06/26 05:54:12;;;;;;;12.43;8.68;;;;;;;21.27;100.00;157864.09;5048358;28;20048;-76
2022/06/26 05:56:50;;;;;;;10.10;8.15;;;;;;;21.37;100.00;157889.88;5025336;28;20044;-77
2022/06/26 05:59:24;;;;;;;16.13;7.63;;;;;;;21.54;100.00;157932.53;5027786;28;20033;-77
2022/06/26 06:02:03;;;;;;;9.32;8.18;;;;;;;21.68;100.00;157968.72;5029209;28;20045;-76
2022/06/26 06:04:31;;;;;;;7.93;7.18;;;;;;;21.77;100.00;157990.63;5036614;28;20036;-76
2022/06/26 06:07:01;;;;;;;8.65;7.22;;;;;;;21.83;100.00;158004.84;5042284;28;20041;-75
2022/06/26 06:09:27;;;;;;;13.27;8.15;;;;;;;21.80;100.00;157998.41;5014588;28;21571;-75
2022/06/26 06:11:54;;;;;;;11.48;7.63;;;;;;;21.60;100.00;157948.03;5008822;28;20060;-77
2022/06/26 06:14:20;;;;;;;9.25;7.00;;;;;;;21.48;100.00;157918.34;5033235;28;20040;-77
2022/06/26 06:16:45;;;;;;;6.78;6.13;;;;;;;21.35;100.00;157884.72;5047194;28;20121;-76
2022/06/26 06:19:11;;;;;;;8.00;7.20;;;;;;;21.43;100.00;157905.38;5038949;28;20032;-76
2022/06/26 06:21:43;;;;;;;7.33;6.57;;;;;;;21.37;100.00;157891.16;5033755;28;20034;-77
2022/06/26 06:24:10;;;;;;;11.52;7.40;;;;;;;21.35;100.00;157884.72;5022616;28;20116;-77
2022/06/26 06:26:37;;;;;;;10.73;7.90;;;;;;;21.36;100.00;157888.59;5050667;28;20041;-77
2022/06/26 06:29:14;;;;;;;9.52;7.35;;;;;;;21.38;100.00;157893.78;5051706;28;20111;-77
2022/06/26 06:31:41;;;;;;;9.05;7.10;;;;;;;21.30;100.00;157871.81;5059090;28;20029;-79
2022/06/26 06:34:08;;;;;;;7.90;7.10;;;;;;;21.18;100.00;157842.13;5019107;28;20067;-77
2022/06/26 06:36:34;;;;;;;7.80;6.70;;;;;;;21.11;100.00;157824.03;5053014;28;20066;-76
2022/06/26 06:39:03;;;;;;;7.72;7.03;;;;;;;21.18;100.00;157842.13;5036112;28;20033;-74
2022/06/26 06:41:28;;;;;;;8.80;6.82;;;;;;;21.50;100.00;157922.22;5050114;28;20102;-78
2022/06/26 06:44:02;;;;;;;7.40;6.60;;;;;;;21.77;100.00;157990.63;5051224;28;20047;-74
2022/06/26 06:46:30;;;;;;;12.27;6.80;;;;;;;22.07;100.00;158066.81;5031719;28;20122;-73
2022/06/26 06:49:13;;;;;;;6.97;6.38;;;;;;;22.22;100.00;158104.28;5053797;28;20602;-77
2022/06/26 06:51:52;;;;;;;7.13;6.47;;;;;;;22.37;100.00;158140.50;5050659;28;20037;-77
2022/06/26 06:54:18;;;;;;;8.73;6.40;;;;;;;22.43;100.00;158157.28;5022204;28;20114;-77
2022/06/26 06:56:47;;;;;;;6.85;6.15;;;;;;;22.53;100.00;158183.16;5014865;28;20045;-77
2022/06/26 06:59:14;;;;;;;8.23;5.55;;;;;;;22.79;100.00;158247.69;5038699;28;20025;-76
2022/06/26 07:01:40;;;;;;;6.10;5.43;;;;;;;22.90;100.00;158276.13;5034330;28;20033;-77
2022/06/26 07:04:07;;;;;;;5.80;5.20;;;;;;;23.05;100.00;158313.66;5047646;28;20041;-76
2022/06/26 07:06:33;;;;;;;11.15;5.28;;;;;;;23.29;97.21;158373.13;5028253;28;20056;-77
2022/06/26 07:08:59;;;;;;;7.78;5.47;;;;;;;23.33;95.72;158383.44;5029287;28;20059;-76
2022/06/26 07:11:28;;;;;;;7.20;5.35;;;;;;;23.42;94.52;158406.72;5042805;28;20049;-76
2022/06/26 07:13:54;;;;;;;7.10;5.72;;;;;;;23.46;94.54;158415.75;5033595;28;20033;-77
2022/06/26 07:16:20;;;;;;;5.07;4.57;;;;;;;23.61;95.79;158453.25;5032136;28;20052;-76
2022/06/26 07:18:45;;;;;;;5.78;4.88;;;;;;;23.70;95.42;158476.53;5029196;28;20530;-77
2022/06/26 07:21:11;;;;;;;6.25;4.70;;;;;;;23.81;94.08;158503.69;5018269;28;20033;-77
2022/06/26 07:23:37;;;;;;;12.80;4.75;;;;;;;24.05;93.61;158565.78;5032803;28;20546;-78
2022/06/26 07:26:18;;;;;;;4.93;4.50;;;;;;;24.26;90.62;158617.44;5033652;28;20486;-77
2022/06/26 07:28:44;;;;;;;5.63;4.78;;;;;;;24.45;89.02;158665.31;5029885;28;20038;-76
2022/06/26 07:31:11;;;;;;;6.05;5.30;;;;;;;24.52;90.11;158682.16;5032976;28;20063;-77
2022/06/26 07:36:21;;;;;;;5.40;4.90;;;;;;;24.67;89.04;158720.94;5025911;28;20033;-76
2022/06/26 07:38:47;;;;;;;6.50;4.78;;;;;;;24.70;88.24;158727.44;5043688;28;20100;-78
2022/06/26 07:41:14;;;;;;;6.82;4.80;;;;;;;24.84;89.22;158764.91;5015235;28;20036;-77
2022/06/26 07:43:40;;;;;;;5.63;5.13;;;;;;;25.00;85.99;158805.00;5057232;28;20033;-78
2022/06/26 07:46:06;;;;;;;6.15;4.30;;;;;;;25.21;87.99;158858.03;5024307;28;20048;-77
2022/06/26 07:48:33;;;;;;;4.60;3.92;;;;;;;25.40;83.53;158905.94;5039714;28;20069;-78
2022/06/26 07:51:00;;;;;;;5.03;4.30;;;;;;;25.51;80.82;158931.84;5014739;28;20048;-76
2022/06/26 07:53:26;;;;;;;4.18;3.80;;;;;;;25.67;81.60;158971.94;5033207;28;20089;-77
2022/06/26 07:55:52;;;;;;;4.45;3.78;;;;;;;25.80;79.86;159006.84;5027185;28;20049;-79
2022/06/26 07:58:18;;;;;;;5.82;4.20;;;;;;;26.02;78.66;159061.25;5033971;28;20515;-76
2022/06/26 08:00:43;;;;;;;4.55;4.10;;;;;;;26.08;77.29;159075.50;5045374;28;20147;-77
2022/06/26 08:03:11;;;;;;;6.07;4.30;;;;;;;26.18;75.87;159102.69;5010349;28;20041;-76
2022/06/26 08:05:38;;;;;;;5.65;4.20;;;;;;;26.23;77.53;159114.31;5027298;28;20047;-76
2022/06/26 08:08:05;;;;;;;4.28;3.88;;;;;;;26.39;74.91;159155.75;5028937;28;20033;-76
2022/06/26 08:10:31;;;;;;;5.97;4.00;;;;;;;26.58;74.08;159203.63;5026676;28;20412;-76
2022/06/26 08:12:57;;;;;;;6.32;3.72;;;;;;;26.71;75.54;159236.03;5043978;28;20053;-76
2022/06/26 08:15:23;;;;;;;6.90;3.80;;;;;;;26.87;73.25;159276.16;5044251;28;20583;-77
2022/06/26 08:17:49;;;;;;;5.60;3.80;;;;;;;27.04;70.71;159317.59;5031239;28;20104;-76
2022/06/26 08:20:15;;;;;;;4.30;3.90;;;;;;;27.06;72.36;159324.03;5025280;28;20132;-78
2022/06/26 08:22:41;;;;;;;4.68;3.42;;;;;;;27.20;71.90;159359.03;5030912;28;20053;-78
2022/06/26 08:25:08;;;;;;;4.13;3.72;;;;;;;27.35;72.15;159397.91;5030461;28;20029;-77
2022/06/26 08:27:33;;;;;;;5.78;3.30;;;;;;;27.44;69.10;159419.88;5058364;28;20136;-75
2022/06/26 08:29:59;;;;;;;4.57;2.92;;;;;;;27.47;66.54;159427.69;5025266;28;20520;-76
2022/06/26 08:32:25;;;;;;;3.88;3.38;;;;;;;27.60;68.74;159460.06;5046043;28;20047;-74
2022/06/26 08:34:51;;;;;;;4.63;3.17;;;;;;;27.95;72.74;159548.16;5033315;28;20392;-76
2022/06/26 08:37:17;;;;;;;6.30;1.90;;;;;;;28.23;65.17;159618.09;5015835;28;20404;-76
2022/06/26 08:39:43;;;;;;;3.25;1.38;;;;;;;28.27;60.71;159629.75;5047531;28;20492;-77
2022/06/26 08:42:09;;;;;;;1.70;1.40;;;;;;;28.33;54.99;159645.31;5031500;28;20033;-77
2022/06/26 08:44:42;;;;;;;1.73;1.20;;;;;;;28.40;55.76;159660.84;5029221;28;20032;-77
2022/06/26 08:47:10;;;;;;;4.03;1.23;;;;;;;28.50;55.65;159688.06;5029669;28;20068;-76
2022/06/26 08:49:35;;;;;;;2.97;1.40;;;;;;;28.67;53.62;159730.88;5047241;28;20497;-76
2022/06/26 08:52:02;;;;;;;2.30;1.30;;;;;;;28.58;53.05;159707.53;5029540;28;20037;-77
2022/06/26 08:54:29;;;;;;;2.47;1.20;;;;;;;28.66;55.43;159726.97;5042394;28;20033;-76
2022/06/26 08:56:55;;;;;;;1.27;1.00;;;;;;;28.58;59.63;159707.53;5036276;28;20038;-78
2022/06/26 08:59:22;;;;;;;2.90;1.23;;;;;;;28.49;56.12;159685.44;5032729;28;20033;-76
2022/06/26 09:01:47;;;;;;;1.30;1.20;;;;;;;28.33;57.48;159644.00;5052631;28;20577;-77
2022/06/26 09:04:14;;;;;;;2.28;1.42;;;;;;;28.24;59.01;159622.00;5031181;28;20025;-77
2022/06/26 09:06:42;;;;;;;3.15;1.20;;;;;;;28.19;61.28;159609.03;5044847;28;20702;-76
2022/06/26 09:09:28;;;;;;;1.48;1.20;;;;;;;28.07;57.46;159579.25;5066067;28;20037;-76
2022/06/26 09:11:56;;;;;;;4.90;1.40;;;;;;;28.03;61.05;159567.56;5034049;28;20037;-77
2022/06/26 09:14:23;;;;;;;2.45;1.25;;;;;;;28.00;62.46;159559.84;5044982;28;20511;-75
2022/06/26 09:16:50;;;;;;;3.60;1.33;;;;;;;28.07;60.15;159579.25;5065594;28;20380;-76
2022/06/26 09:19:24;;;;;;;2.08;1.20;;;;;;;28.21;58.72;159614.22;5011386;28;20136;-76
2022/06/26 09:22:13;;;;;;;1.33;1.20;;;;;;;28.16;57.09;159601.25;5043593;28;20037;-78
2022/06/26 09:24:50;;;;;;;1.30;1.20;;;;;;;28.17;61.16;159602.56;5034262;28;20044;-77
2022/06/26 09:27:16;;;;;;;1.10;1.00;;;;;;;28.15;59.31;159599.97;5036335;28;20495;-76
2022/06/26 09:29:49;;;;;;;3.35;1.50;;;;;;;28.24;63.29;159620.72;5044292;28;20029;-76
2022/06/26 09:32:16;;;;;;;2.85;1.23;;;;;;;28.39;61.30;159659.56;5046119;28;20064;-76
2022/06/26 09:34:52;;;;;;;2.13;1.40;;;;;;;28.59;57.75;159708.81;5032087;28;20070;-76
2022/06/26 09:37:20;;;;;;;3.92;1.40;;;;;;;28.86;57.57;159777.53;5037347;28;20111;-78
2022/06/26 09:39:46;;;;;;;3.20;1.50;;;;;;;29.01;57.64;159815.03;5049109;28;20037;-76
2022/06/26 09:42:18;;;;;;;4.93;1.75;;;;;;;29.38;56.79;159908.41;5010433;28;20037;-75
2022/06/26 09:44:52;;;;;;;1.38;1.27;;;;;;;29.59;55.95;159961.53;5052101;28;20045;-79
2022/06/26 09:47:19;;;;;;;9.82;1.90;;;;;;;29.46;58.08;159929.13;5017950;28;20094;-79
2022/06/26 09:49:45;;;;;;;3.00;1.73;;;;;;;29.33;56.29;159895.44;5028125;28;20208;-79
2022/06/26 09:52:11;;;;;;;3.13;1.65;;;;;;;29.19;58.22;159861.75;5050863;28;20037;-75
2022/06/26 09:54:36;;;;;;;2.15;1.30;;;;;;;29.10;57.24;159839.72;5044981;28;20038;-76
2022/06/26 09:57:03;;;;;;;6.03;1.80;;;;;;;29.25;59.83;159876.00;5011168;28;20044;-75
2022/06/26 09:59:28;;;;;;;11.35;1.52;;;;;;;29.08;57.84;159833.19;5050549;28;20063;-77
2022/06/26 10:07:23;;;;;;;3.13;1.05;;;;;;;29.37;59.19;159905.84;5035781;28;20048;-75
2022/06/26 10:09:49;;;;;;;2.30;1.40;;;;;;;29.80;55.23;160014.72;5056893;28;20033;-75
2022/06/26 10:12:17;;;;;;;2.50;1.33;;;;;;;30.13;52.49;160097.72;5048640;28;20447;-74
2022/06/26 10:14:46;;;;;;;1.55;1.30;;;;;;;30.49;51.01;160188.50;5038896;28;20080;-78
2022/06/26 10:17:50;;;;;;;3.45;1.63;;;;;;;30.80;50.94;160267.63;5039289;28;20547;-78
2022/06/26 10:20:19;;;;;;;4.82;1.48;;;;;;;30.89;49.72;160289.63;5028691;28;20067;-74
2022/06/26 10:22:45;;;;;;;5.30;1.50;;;;;;;30.63;52.95;160226.13;5034368;28;20041;-74
2022/06/26 10:25:23;;;;;;;6.53;1.70;;;;;;;30.24;56.82;160126.22;5026987;28;20037;-75
2022/06/26 10:27:48;;;;;;;3.05;1.55;;;;;;;29.80;56.96;160016.06;5040460;28;20044;-75
2022/06/26 10:30:17;;;;;;;2.75;1.42;;;;;;;29.98;56.28;160061.41;5051602;28;20036;-76
2022/06/26 10:32:43;;;;;;;7.03;1.80;;;;;;;30.18;57.78;160111.97;5033578;28;20034;-74
2022/06/26 10:35:11;;;;;;;3.38;1.50;;;;;;;30.65;57.31;160230.00;5051975;28;20025;-76
2022/06/26 10:37:47;;;;;;;6.32;2.00;;;;;;;30.92;53.29;160298.78;5045640;28;20115;-77
2022/06/26 10:43:04;;;;;;;5.47;1.33;;;;;;;30.76;49.99;160257.22;5032867;28;20037;-76
2022/06/26 10:45:36;;;;;;;2.83;1.10;;;;;;;30.81;44.61;160271.47;5059548;28;20036;-76
2022/06/26 10:48:15;;;;;;;3.40;1.27;;;;;;;30.65;47.21;160231.31;5016445;28;20049;-76
2022/06/26 10:50:41;;;;;;;1.40;1.20;;;;;;;30.60;49.62;160218.31;5032696;28;20056;-76
2022/06/26 10:53:16;;;;;;;1.88;1.27;;;;;;;30.55;51.53;160204.06;5029469;28;20040;-76
2022/06/26 10:55:52;;;;;;;4.35;1.10;;;;;;;30.32;52.29;160147.00;5047808;28;20049;-75
2022/06/26 10:58:20;;;;;;;1.60;1.30;;;;;;;29.70;53.34;159990.06;5025755;28;20044;-76
2022/06/26 11:00:46;;;;;;;2.13;1.30;;;;;;;29.39;56.33;159911.03;5031118;28;20075;-77
2022/06/26 11:03:14;;;;;;;2.50;1.45;;;;;;;29.23;55.33;159872.13;5035574;28;20053;-73
2022/06/26 11:05:52;;;;;;;1.88;1.38;;;;;;;29.18;54.60;159857.84;5061409;22;20045;-77
2022/06/26 11:08:26;;;;;;;2.20;1.40;;;;;;;29.15;54.33;159850.13;5036880;28;20123;-76
2022/06/26 11:10:52;;;;;;;2.50;1.45;;;;;;;28.97;55.16;159804.69;5024364;28;20139;-76
2022/06/26 11:13:17;;;;;;;2.97;1.90;;;;;;;29.11;53.69;159841.00;5018607;28;20052;-79
2022/06/26 11:15:43;;;;;;;3.05;1.70;;;;;;;29.50;57.31;159939.53;5033495;28;20043;-77
2022/06/26 11:18:09;;;;;;;4.85;2.05;;;;;;;29.59;54.54;159961.53;5019646;28;20047;-80
2022/06/26 11:20:46;;;;;;;7.50;2.20;;;;;;;29.45;55.03;159926.56;5016947;28;20124;-77
2022/06/26 11:23:27;;;;;;;3.60;2.05;;;;;;;29.93;53.81;160048.41;4999875;28;20090;-77
2022/06/26 11:25:55;;;;;;;6.00;2.10;;;;;;;30.43;56.86;160175.53;5047839;28;20029;-76
2022/06/26 11:28:27;;;;;;;4.80;2.28;;;;;;;30.78;50.38;160263.72;5035729;28;20112;-77
2022/06/26 11:30:53;;;;;;;;;;;;;;;31.19;51.53;160367.53;5023190;28;20052;-78
2022/06/26 11:33:24;;;;;;;2.60;2.28;;;;;;;31.38;50.30;160414.19;5031534;28;19921;-79
2022/06/26 11:35:50;;;;;;;2.70;2.10;;;;;;;31.54;50.19;160455.75;5031115;28;20045;-77